Stations météo

Publicité
Dunstaffnage, Grande-Bretagne (99006): Température de l'air & dewpoint: 11.02.2019 16:00:00 - 17.02.2019 16:00:00 (GMT)Dunstaffnage, Grande-Bretagne (99006): Température de l'air -20cm: 11.02.2019 16:00:00 - 17.02.2019 16:00:00 (GMT)Dunstaffnage, Grande-Bretagne (99006): Vitesse du vent & gusts: 11.02.2019 16:00:00 - 17.02.2019 16:00:00 (GMT)Dunstaffnage, Grande-Bretagne (99006): Direction du vent: 11.02.2019 16:00:00 - 17.02.2019 16:00:00 (GMT)Dunstaffnage, Grande-Bretagne (99006): Quantités de précipitations: 11.02.2019 16:00:00 - 17.02.2019 16:00:00 (GMT)
Date & Time tt [°C] td [°C] tt -20cm [°C] ff [km/h] ff [knt] fx [km/h] fx [knt] dd rr [mm]
17.02.2019 16:00:00 10,1 5,5 - 16 9 - - S 0,0
17.02.2019 15:00:00 9,7 5,6 - 18 10 - - S 0,0
17.02.2019 14:00:00 7,7 6,3 - 13 7 68 37 S 1,4
17.02.2019 13:00:00 10,0 7,5 - 22 12 - - S 0,2
17.02.2019 12:00:00 9,5 7,8 - 18 10 - - S 0,4
17.02.2019 11:00:00 - - - - - - - - 2,0
17.02.2019 10:00:00 9,6 8,1 - 13 7 - - S 1,6
17.02.2019 09:00:00 9,9 7,6 6,7 15 8 - - S 0,0
17.02.2019 08:00:00 9,9 7,8 - 13 7 - - S 0,4
17.02.2019 07:00:00 10,8 7,3 - 15 8 55 30 SSE 0,0
17.02.2019 06:00:00 11,0 7,3 - 26 14 59 32 S 0,0
17.02.2019 05:00:00 10,9 7,4 - 26 14 55 30 S 0,0
17.02.2019 04:00:00 10,7 7,9 - 21 11 46 25 S 0,0
17.02.2019 03:00:00 10,4 8,4 - 26 14 46 25 S 0,4
17.02.2019 02:00:00 10,8 8,3 - 24 13 50 27 S 0,0
17.02.2019 01:00:00 11,1 8,5 - 18 10 - - S 0,0
17.02.2019 00:00:00 10,4 7,7 - 11 6 - - S 0,0
16.02.2019 23:00:00 9,9 7,1 - 9 5 - - ESE 0,0
16.02.2019 22:00:00 9,7 6,6 - 8 4 - - SE 0,0
16.02.2019 21:00:00 9,5 6,3 - 8 4 - - SSE 0,0
16.02.2019 20:00:00 9,5 6,4 - 8 4 - - SE 0,0
16.02.2019 19:00:00 9,3 6,2 - 9 5 - - SSE 0,0
16.02.2019 18:00:00 9,4 5,7 - 11 6 - - SSE 0,0
16.02.2019 17:00:00 9,4 5,8 - 15 8 - - S 0,0
16.02.2019 16:00:00 9,5 5,4 - 21 11 - - S 0,0
16.02.2019 15:00:00 9,9 5,7 - 13 7 - - S 0,0
16.02.2019 14:00:00 10,4 4,9 - 16 9 - - S 0,0
16.02.2019 13:00:00 9,4 5,7 - 16 9 - - SSW 0,0
16.02.2019 12:00:00 8,8 6,9 - 21 11 - - SSW 0,0
16.02.2019 11:00:00 9,2 6,7 - 15 8 - - S 0,0
16.02.2019 10:00:00 8,7 6,5 - 15 8 - - SSW 0,0
16.02.2019 09:00:00 8,8 7,2 6,4 15 8 - - SSW 0,2
16.02.2019 08:00:00 8,9 7,3 - 13 7 - - S 0,2
16.02.2019 07:00:00 8,6 7,5 - 15 8 - - S 0,0
16.02.2019 06:00:00 8,6 7,7 - 11 6 - - S 0,4
16.02.2019 05:00:00 8,9 7,5 - 11 6 - - S 0,0
16.02.2019 04:00:00 9,1 7,6 - 11 6 - - S 0,0
16.02.2019 03:00:00 9,0 7,9 - 8 4 - - S 0,4
16.02.2019 02:00:00 9,1 7,7 - 11 6 - - SW 0,2
16.02.2019 01:00:00 10,2 8,0 - 15 8 - - SW 0,2
16.02.2019 00:00:00 10,7 8,5 - 18 10 - - SW 0,0
15.02.2019 23:00:00 11,0 9,1 - 22 12 - - S 0,0
15.02.2019 22:00:00 10,2 8,9 - 24 13 - - SSE 2,0
15.02.2019 21:00:00 9,4 8,0 - 15 8 - - SSE 2,2
15.02.2019 20:00:00 9,2 7,9 - 13 7 - - ESE 4,0
15.02.2019 19:00:00 9,2 7,5 - 15 8 - - ESE 0,8
15.02.2019 18:00:00 9,9 7,1 - 16 9 - - SSE 0,0
15.02.2019 17:00:00 9,5 6,7 - 13 7 - - SSE 0,0
15.02.2019 16:00:00 10,1 6,4 - 16 9 - - SSE 0,0
15.02.2019 15:00:00 10,7 6,1 - 22 12 - - S 0,0
15.02.2019 14:00:00 11,5 6,0 - 16 9 - - S 0,0
15.02.2019 13:00:00 11,2 5,8 - 8 4 - - S 0,0
15.02.2019 12:00:00 10,9 5,5 - 22 12 - - S 0,0
15.02.2019 11:00:00 9,1 4,4 - 18 10 - - SSE 0,0
15.02.2019 10:00:00 8,5 3,8 - 9 5 - - E 0,0
15.02.2019 09:00:00 7,3 3,0 5,7 21 11 - - SE 0,0
15.02.2019 08:00:00 6,9 2,6 - 15 8 - - E 0,0
15.02.2019 07:00:00 7,0 2,0 - 9 5 - - ESE 0,0
15.02.2019 06:00:00 5,5 2,0 - 4 2 - - E 0,0
15.02.2019 05:00:00 7,0 2,7 - 13 7 - - SE 0,0
15.02.2019 04:00:00 6,5 2,7 - 8 4 - - E 0,0
15.02.2019 03:00:00 6,7 2,7 - 9 5 - - E 0,0
15.02.2019 02:00:00 6,7 3,2 - 9 5 - - SE 0,0
15.02.2019 01:00:00 7,0 3,4 - 8 4 - - SE 0,0
15.02.2019 00:00:00 7,2 3,4 - 9 5 - - ESE 0,0
14.02.2019 23:00:00 7,5 4,1 - 15 8 - - SE 0,0
14.02.2019 22:00:00 7,5 4,2 - 15 8 - - SE 0,0
14.02.2019 21:00:00 7,9 4,7 - 15 8 - - ESE 0,0
14.02.2019 20:00:00 7,3 4,7 - 9 5 - - E 0,0
14.02.2019 19:00:00 8,1 5,3 - 21 11 - - E 0,0
14.02.2019 18:00:00 8,7 5,5 - 18 10 - - ESE 0,0
14.02.2019 17:00:00 9,3 5,7 - 11 6 - - ESE 0,0
14.02.2019 16:00:00 10,1 6,1 - 9 5 - - SSE 0,0
14.02.2019 15:00:00 10,1 6,3 - 9 5 - - SSE 0,0
14.02.2019 14:00:00 10,1 6,3 - 9 5 - - S 0,0
14.02.2019 13:00:00 11,0 6,7 - 15 8 - - S 0,0
14.02.2019 12:00:00 10,2 7,0 - 15 8 - - S 0,0
14.02.2019 11:00:00 10,0 7,3 - 15 8 - - S 0,0
14.02.2019 10:00:00 9,6 7,3 - 16 9 - - S 0,0
14.02.2019 09:00:00 9,9 7,1 6,2 5 3 - - SSE 0,0
14.02.2019 08:00:00 10,0 7,3 - 15 8 - - S 0,0
14.02.2019 07:00:00 10,0 7,3 - 15 8 - - S 0,0
14.02.2019 06:00:00 10,2 7,3 - 21 11 - - S 0,0
14.02.2019 05:00:00 10,2 7,3 - 11 6 - - S 0,0
14.02.2019 04:00:00 9,8 7,6 - 16 9 - - SSW 0,0
14.02.2019 03:00:00 10,1 7,4 - 21 11 - - SSW 0,0
14.02.2019 02:00:00 10,4 7,1 - 21 11 - - S 0,0
14.02.2019 01:00:00 10,0 7,0 - 22 12 - - S 0,0
14.02.2019 00:00:00 10,1 6,8 - 24 13 - - S 0,0
13.02.2019 23:00:00 10,1 6,6 - 21 11 - - S 0,0
13.02.2019 22:00:00 10,3 6,7 - 22 12 - - S 0,0
13.02.2019 21:00:00 10,2 6,6 - 24 13 - - SSE 0,0
13.02.2019 20:00:00 10,2 6,7 - 16 9 - - SSE 0,0
13.02.2019 19:00:00 10,2 6,9 - 18 10 - - SSE 0,0
13.02.2019 18:00:00 10,7 7,1 - 18 10 - - S 0,0
13.02.2019 17:00:00 10,5 7,2 - 18 10 - - SSE 0,0
13.02.2019 16:00:00 10,9 7,1 - 22 12 46 25 S 0,0
13.02.2019 15:00:00 11,7 7,1 - 22 12 - - S 0,0
13.02.2019 14:00:00 11,2 7,5 - 16 9 - - S 0,0
13.02.2019 13:00:00 11,2 8,3 - 18 10 48 26 S 0,2
13.02.2019 12:00:00 10,1 8,1 - 22 12 46 25 S 0,0
13.02.2019 11:00:00 10,5 7,6 - 24 13 46 25 S 0,2
13.02.2019 10:00:00 10,3 7,8 - 16 9 - - S 0,0
13.02.2019 09:00:00 10,4 7,8 5,2 18 10 - - S 0,0
13.02.2019 08:00:00 10,1 8,0 - 21 11 - - S 0,0
13.02.2019 07:00:00 9,7 8,1 - 15 8 - - S 0,2
13.02.2019 06:00:00 10,1 8,3 - 21 11 - - S 0,0
13.02.2019 05:00:00 10,4 9,0 - 21 11 - - S 0,2
13.02.2019 04:00:00 10,2 9,3 - 22 12 - - S 0,8
13.02.2019 03:00:00 9,6 8,6 - 9 5 - - SSE 0,6
13.02.2019 02:00:00 8,7 7,8 - 8 4 - - SE 0,0
13.02.2019 01:00:00 7,7 6,4 - 16 9 - - E 0,0
13.02.2019 00:00:00 7,8 5,4 - 16 9 - - ESE 0,0
12.02.2019 23:00:00 7,5 6,5 - 13 7 - - SE 0,0
12.02.2019 22:00:00 7,8 6,5 - 9 5 - - S 0,0
12.02.2019 21:00:00 8,8 7,5 - 13 7 - - SW 0,0
12.02.2019 20:00:00 8,8 7,4 - 15 8 - - SW 0,0
12.02.2019 19:00:00 8,9 7,4 - 9 5 - - SW 0,0
12.02.2019 18:00:00 9,3 7,9 - 13 7 - - SW 0,0
12.02.2019 17:00:00 9,9 7,8 - 21 11 - - SW 0,0
12.02.2019 16:00:00 10,0 8,3 - 26 14 52 28 SW 0,0
12.02.2019 15:00:00 10,3 8,9 - 31 17 52 28 SW 0,0
12.02.2019 14:00:00 10,4 8,9 - 29 16 52 28 WSW 0,0
12.02.2019 13:00:00 10,2 9,2 - 34 18 50 27 WSW 0,6
12.02.2019 12:00:00 9,6 8,7 - 22 12 - - SSW 1,4
12.02.2019 11:00:00 9,6 8,4 - 21 11 - - S 1,2
12.02.2019 10:00:00 9,7 7,5 - 16 9 - - SSW 0,0
12.02.2019 09:00:00 9,5 7,1 4,4 18 10 - - S 0,0
12.02.2019 08:00:00 8,9 6,9 - 21 11 - - S 0,0
12.02.2019 07:00:00 8,3 6,6 - 15 8 - - S 0,0
12.02.2019 06:00:00 8,0 6,7 - 15 8 - - S 0,0
12.02.2019 05:00:00 7,5 6,6 - 16 9 - - S 0,8
12.02.2019 04:00:00 7,8 5,8 - 21 11 - - S 0,0
12.02.2019 03:00:00 8,3 5,4 - 15 8 - - S 0,0
12.02.2019 02:00:00 8,1 5,5 - 16 9 - - SSE 0,0
12.02.2019 01:00:00 7,7 5,3 - 15 8 - - S 0,0
12.02.2019 00:00:00 7,3 5,3 - 13 7 - - SE 0,0
11.02.2019 23:00:00 7,3 5,4 - 13 7 - - SSE 0,0
11.02.2019 22:00:00 6,5 5,4 - 9 5 - - SE 0,0
11.02.2019 21:00:00 6,2 4,6 - 11 6 - - SE 0,2
11.02.2019 20:00:00 6,4 3,5 - 11 6 - - SSE 0,0
11.02.2019 19:00:00 6,2 3,1 - 11 6 - - ESE 0,0
11.02.2019 18:00:00 6,1 2,8 - 11 6 - - SE 0,0
11.02.2019 17:00:00 6,1 3,2 - 8 4 - - E 0,0
11.02.2019 16:00:00 6,7 3,2 - 8 4 - - SSE 0,0

tt = Température de l'air
td = dewpoint
tt -20cm = Température de l'air -20cm
ff = Vitesse du vent
fx = gusts
dd = Direction du vent
rr = Quantités de précipitations

stations d'obs. à proximité